Time;durP1;ratioP1;P1;durP2;ratioP2;P2;SDS_P1;SDS_P2;PMS_P1;PMS_P2;Temp;Humidity;BMP_temperature;BMP_pressure;BME280_temperature;BME280_humidity;BME280_pressure;Samples;Min_cycle;Max_cycle;Signal;HPM_P1;HPM_P2
2024/01/25 00:00:05;;;;;;;12.47;3.25;;;;;;;5.44;100.00;99156.83;1829881;78;25608;-46
2024/01/25 00:02:31;;;;;;;15.63;3.25;;;;;;;5.42;100.00;99155.78;1829814;77;27443;-45
2024/01/25 00:04:58;;;;;;;9.18;2.75;;;;;;;5.44;100.00;99156.83;1829745;77;25751;-46
2024/01/25 00:07:24;;;;;;;12.33;2.70;;;;;;;5.43;100.00;99156.05;1829766;78;25529;-46
2024/01/25 00:09:50;;;;;;;14.43;2.42;;;;;;;5.44;100.00;99159.51;1829751;78;25511;-46
2024/01/25 00:12:17;;;;;;;13.43;3.45;;;;;;;5.46;100.00;99157.88;1829960;78;25379;-46
2024/01/25 00:14:44;;;;;;;16.85;5.33;;;;;;;5.48;100.00;99152.98;1829744;77;28044;-46
2024/01/25 00:17:10;;;;;;;10.25;3.37;;;;;;;5.49;100.00;99156.71;1829763;77;25431;-45
2024/01/25 00:19:37;;;;;;;10.80;4.05;;;;;;;5.50;100.00;99154.81;1829835;78;25518;-46
2024/01/25 00:22:04;;;;;;;11.90;2.77;;;;;;;5.51;100.00;99162.56;1829785;77;25630;-46
2024/01/25 00:24:30;;;;;;;10.78;3.00;;;;;;;5.51;100.00;99162.56;1829842;78;25428;-44
2024/01/25 00:26:56;;;;;;;11.00;2.95;;;;;;;5.53;100.00;99164.95;1829836;78;28525;-46
2024/01/25 00:29:22;;;;;;;11.50;2.95;;;;;;;5.52;100.00;99154.77;1829742;78;25463;-46
2024/01/25 00:31:48;;;;;;;9.18;3.22;;;;;;;5.52;100.00;99162.82;1829770;78;25568;-46
2024/01/25 00:34:16;;;;;;;9.48;3.55;;;;;;;5.52;100.00;99163.37;1829799;77;27690;-48
2024/01/25 00:36:43;;;;;;;9.78;2.27;;;;;;;5.52;100.00;99158.80;1829831;77;25605;-47
2024/01/25 00:39:11;;;;;;;9.03;2.30;;;;;;;5.51;100.00;99166.59;1829792;78;27635;-46
2024/01/25 00:41:38;;;;;;;8.10;1.92;;;;;;;5.53;100.00;99150.19;1829708;78;25611;-46
2024/01/25 00:44:07;;;;;;;13.05;2.00;;;;;;;5.52;100.00;99161.48;1829805;77;25463;-45
2024/01/25 00:46:34;;;;;;;5.42;2.42;;;;;;;5.53;100.00;99160.36;1829765;77;25999;-44
2024/01/25 00:49:02;;;;;;;6.92;1.98;;;;;;;5.55;100.00;99163.56;1829809;78;25625;-45
2024/01/25 00:51:29;;;;;;;5.50;1.67;;;;;;;5.53;100.00;99163.05;1829788;77;27511;-47
2024/01/25 00:53:57;;;;;;;6.67;2.08;;;;;;;5.52;100.00;99161.48;1829654;78;25684;-45
2024/01/25 00:56:25;;;;;;;7.30;2.77;;;;;;;5.53;100.00;99171.65;1829800;77;25590;-45
2024/01/25 00:58:52;;;;;;;7.25;2.00;;;;;;;5.51;100.00;99184.02;1829745;78;25698;-46
2024/01/25 01:01:22;;;;;;;8.20;2.12;;;;;;;5.47;100.00;99181.70;1829809;78;25394;-46
2024/01/25 01:03:52;;;;;;;7.47;2.30;;;;;;;5.41;100.00;99177.02;1829819;78;27290;-45
2024/01/25 01:06:20;;;;;;;12.65;2.58;;;;;;;5.36;100.00;99183.83;1829704;77;25858;-45
2024/01/25 01:08:48;;;;;;;5.17;2.45;;;;;;;5.34;100.00;99177.16;1828830;77;25568;-45
2024/01/25 01:11:15;;;;;;;9.08;2.65;;;;;;;5.29;100.00;99174.59;1829738;77;25599;-45
2024/01/25 01:13:41;;;;;;;6.75;2.22;;;;;;;5.24;100.00;99181.66;1829678;77;25398;-46
2024/01/25 01:16:08;;;;;;;6.92;2.08;;;;;;;5.21;100.00;99170.72;1829812;78;27516;-45
2024/01/25 01:18:35;;;;;;;9.98;1.98;;;;;;;5.16;100.00;99187.72;1829673;77;25391;-45
2024/01/25 01:21:01;;;;;;;5.78;2.12;;;;;;;5.12;100.00;99167.95;1829781;78;25408;-45
2024/01/25 01:23:27;;;;;;;10.72;2.72;;;;;;;5.10;100.00;99170.70;1829757;78;25476;-46
2024/01/25 01:25:53;;;;;;;11.48;2.37;;;;;;;5.08;100.00;99167.53;1829825;77;25592;-45
2024/01/25 01:28:20;;;;;;;11.43;2.83;;;;;;;5.05;100.00;99176.95;1829769;77;27325;-45
2024/01/25 01:30:47;;;;;;;8.38;2.58;;;;;;;5.04;100.00;99161.98;1829650;78;25588;-45
2024/01/25 01:33:13;;;;;;;10.53;2.70;;;;;;;5.01;100.00;99171.39;1829796;77;25408;-45
2024/01/25 01:35:39;;;;;;;8.58;4.25;;;;;;;5.00;100.00;99171.69;1829869;78;25590;-45
2024/01/25 01:38:05;;;;;;;11.53;2.90;;;;;;;5.00;100.00;99170.35;1829981;77;25447;-46
2024/01/25 01:40:31;;;;;;;7.55;3.02;;;;;;;4.98;100.00;99167.19;1829952;77;27233;-46
2024/01/25 01:43:01;;;;;;;10.23;2.92;;;;;;;4.98;100.00;99163.16;1829852;77;25546;-46
2024/01/25 01:45:28;;;;;;;11.93;3.00;;;;;;;4.97;100.00;99173.62;1829940;78;25430;-46
2024/01/25 01:47:56;;;;;;;9.65;2.92;;;;;;;4.96;100.00;99170.16;1829908;77;25618;-45
2024/01/25 01:50:23;;;;;;;10.00;3.08;;;;;;;4.95;100.00;99175.26;1829931;77;25375;-46
2024/01/25 01:52:50;;;;;;;10.45;3.47;;;;;;;4.96;100.00;99167.48;1829900;77;28048;-45
2024/01/25 01:55:17;;;;;;;9.20;2.80;;;;;;;4.96;100.00;99178.20;1829806;78;25342;-46
2024/01/25 01:57:46;;;;;;;11.20;2.45;;;;;;;4.96;100.00;99164.80;1829943;77;25529;-46
2024/01/25 02:00:16;;;;;;;7.42;2.45;;;;;;;4.96;100.00;99178.20;1830019;78;25542;-46
2024/01/25 02:02:44;;;;;;;12.68;2.72;;;;;;;4.97;100.00;99172.28;1829910;78;25417;-45
2024/01/25 02:05:11;;;;;;;16.48;4.15;;;;;;;4.97;100.00;99162.37;1829931;77;27392;-46
2024/01/25 02:07:40;;;;;;;12.93;2.70;;;;;;;4.95;100.00;99161.86;1829763;78;25426;-46
2024/01/25 02:10:08;;;;;;;13.38;3.02;;;;;;;4.96;100.00;99173.39;1830034;78;25555;-45
2024/01/25 02:12:36;;;;;;;10.87;3.30;;;;;;;4.96;100.00;99153.30;1830137;78;25614;-46
2024/01/25 02:15:03;;;;;;;12.65;2.42;;;;;;;4.97;100.00;99162.91;1829820;77;25547;-46
2024/01/25 02:17:30;;;;;;;11.40;3.35;;;;;;;4.96;100.00;99151.40;1829927;77;27408;-45
2024/01/25 02:19:57;;;;;;;7.47;2.30;;;;;;;4.97;100.00;99162.91;1829777;78;25555;-45
2024/01/25 02:22:23;;;;;;;12.20;2.27;;;;;;;4.97;100.00;99153.52;1829972;77;25515;-44
2024/01/25 02:24:49;;;;;;;10.65;2.80;;;;;;;4.99;100.00;99171.47;1829997;77;25563;-45
2024/01/25 02:27:15;;;;;;;9.25;2.58;;;;;;;4.99;100.00;99192.34;1830019;78;25181;-45
2024/01/25 02:29:42;;;;;;;13.93;2.95;;;;;;;4.99;100.00;99166.89;1829986;78;27528;-45
2024/01/25 02:32:09;;;;;;;11.73;2.83;;;;;;;4.99;100.00;99174.92;1829785;77;27290;-46
2024/01/25 02:34:36;;;;;;;7.70;1.87;;;;;;;5.00;100.00;99157.73;1829865;77;25368;-45
2024/01/25 02:37:03;;;;;;;9.15;2.83;;;;;;;5.00;100.00;99168.45;1829887;77;25558;-46
2024/01/25 02:39:29;;;;;;;12.05;2.90;;;;;;;4.99;100.00;99180.29;1829920;77;25389;-46
2024/01/25 02:41:55;;;;;;;10.20;3.00;;;;;;;4.99;100.00;99176.82;1829907;78;27464;-45
2024/01/25 02:44:21;;;;;;;9.23;3.27;;;;;;;4.98;100.00;99182.70;1829741;77;25403;-46
2024/01/25 02:46:49;;;;;;;13.70;3.35;;;;;;;4.98;100.00;99183.27;1829865;78;25515;-47
2024/01/25 02:49:15;;;;;;;6.45;2.67;;;;;;;4.96;100.00;99180.88;1829843;77;25470;-45
2024/01/25 02:51:41;;;;;;;12.10;3.12;;;;;;;4.95;100.00;99175.81;1829895;77;25669;-45
2024/01/25 02:54:08;;;;;;;10.58;3.10;;;;;;;4.89;100.00;99180.49;1829844;78;28493;-45
2024/01/25 02:56:35;;;;;;;14.68;3.22;;;;;;;4.91;100.00;99190.91;1829760;78;25391;-45
2024/01/25 02:59:01;;;;;;;13.75;3.12;;;;;;;4.89;100.00;99189.05;1829874;78;25541;-45
2024/01/25 03:01:28;;;;;;;10.53;3.47;;;;;;;4.87;100.00;99180.00;1829767;77;25483;-45
2024/01/25 03:03:54;;;;;;;10.72;2.87;;;;;;;4.85;100.00;99182.97;1829914;78;25599;-45
2024/01/25 03:06:20;;;;;;;10.35;2.95;;;;;;;4.85;100.00;99182.16;1829860;77;29664;-44
2024/01/25 03:08:47;;;;;;;11.40;3.12;;;;;;;4.83;100.00;99185.13;1829779;78;25560;-45
2024/01/25 03:11:13;;;;;;;17.27;3.60;;;;;;;4.81;100.00;99188.66;1829865;78;25603;-47
2024/01/25 03:13:39;;;;;;;17.95;3.17;;;;;;;4.79;100.00;99191.41;1829807;78;26117;-45
2024/01/25 03:16:07;;;;;;;11.60;2.40;;;;;;;4.76;100.00;99183.41;1829800;78;25379;-45
2024/01/25 03:18:33;;;;;;;17.65;3.75;;;;;;;4.75;100.00;99191.73;1829866;77;27471;-46
2024/01/25 03:20:59;;;;;;;17.23;3.12;;;;;;;4.73;100.00;99194.70;1829797;77;25428;-44
2024/01/25 03:23:26;;;;;;;10.65;3.75;;;;;;;4.71;100.00;99204.92;1829873;77;25440;-45
2024/01/25 03:25:52;;;;;;;14.90;3.87;;;;;;;4.70;100.00;99209.23;1829794;78;25543;-48
2024/01/25 03:28:18;;;;;;;10.10;3.25;;;;;;;4.68;100.00;99209.53;1829891;78;25443;-45
2024/01/25 03:30:45;;;;;;;14.35;3.98;;;;;;;4.66;100.00;99209.04;1829844;77;28344;-46
2024/01/25 03:33:11;;;;;;;12.73;6.35;;;;;;;4.63;100.00;99210.44;1829734;78;25444;-45
2024/01/25 03:35:37;;;;;;;12.63;3.90;;;;;;;4.63;100.00;99200.25;1829869;78;25385;-45
2024/01/25 03:38:04;;;;;;;11.20;3.10;;;;;;;4.60;100.00;99207.56;1829812;78;25560;-46
2024/01/25 03:40:30;;;;;;;14.35;3.60;;;;;;;4.60;100.00;99203.55;1829889;77;25572;-45
2024/01/25 03:42:57;;;;;;;13.28;3.52;;;;;;;4.59;100.00;99203.28;1829857;78;27469;-44
2024/01/25 03:45:23;;;;;;;10.68;3.80;;;;;;;4.56;100.00;99205.99;1829788;78;25513;-45
2024/01/25 03:47:49;;;;;;;13.75;3.05;;;;;;;4.58;100.00;99205.70;1829784;78;25438;-45
2024/01/25 03:50:16;;;;;;;13.00;4.00;;;;;;;4.58;100.00;99207.04;1829770;78;27656;-45
2024/01/25 03:52:42;;;;;;;16.17;2.95;;;;;;;4.57;100.00;99210.83;1829850;78;25436;-45
2024/01/25 03:55:08;;;;;;;13.98;4.30;;;;;;;4.56;100.00;99210.01;1829801;78;27531;-45
2024/01/25 03:57:36;;;;;;;15.08;4.10;;;;;;;4.56;100.00;99209.22;1829697;77;25793;-49
2024/01/25 04:00:04;;;;;;;8.80;3.05;;;;;;;4.55;100.00;99212.45;1829913;77;25442;-46
2024/01/25 04:02:30;;;;;;;15.88;3.62;;;;;;;4.54;100.00;99198.80;1829773;78;25478;-45
2024/01/25 04:04:57;;;;;;;11.25;3.37;;;;;;;4.53;100.00;99207.95;1829807;77;25534;-46
2024/01/25 04:07:23;;;;;;;13.03;3.30;;;;;;;4.52;100.00;99194.30;1829830;78;27555;-46
2024/01/25 04:09:50;;;;;;;11.25;3.60;;;;;;;4.50;100.00;99197.81;1829735;77;25624;-44
2024/01/25 04:12:16;;;;;;;18.75;3.55;;;;;;;4.48;100.00;99204.02;1829820;77;25560;-47
2024/01/25 04:14:43;;;;;;;17.75;3.67;;;;;;;4.48;100.00;99205.36;1829586;78;25594;-45
2024/01/25 04:17:09;;;;;;;15.88;3.92;;;;;;;4.47;100.00;99206.44;1829812;78;25570;-45
2024/01/25 04:19:36;;;;;;;9.90;2.65;;;;;;;4.46;100.00;99208.84;1829777;78;27470;-45
2024/01/25 04:22:03;;;;;;;18.17;3.45;;;;;;;4.45;100.00;99208.62;1829712;78;25565;-46
2024/01/25 04:24:29;;;;;;;16.65;3.17;;;;;;;4.43;100.00;99216.16;1829796;77;25392;-46
2024/01/25 04:26:56;;;;;;;12.28;3.33;;;;;;;4.41;100.00;99225.81;1829775;78;26091;-45
2024/01/25 04:29:23;;;;;;;13.10;4.45;;;;;;;4.42;100.00;99223.37;1813746;78;25572;-48
2024/01/25 04:31:50;;;;;;;12.85;3.55;;;;;;;4.41;100.00;99215.63;1829708;78;27472;-45
2024/01/25 04:34:16;;;;;;;13.62;3.25;;;;;;;4.40;100.00;99221.54;1829681;78;25673;-47
2024/01/25 04:36:43;;;;;;;12.63;3.90;;;;;;;4.41;100.00;99220.98;1829804;77;25412;-45
2024/01/25 04:39:10;;;;;;;14.33;3.70;;;;;;;4.40;100.00;99216.19;1829727;78;25547;-45
2024/01/25 04:41:36;;;;;;;12.85;3.52;;;;;;;4.39;100.00;99218.63;1829805;78;25541;-44
2024/01/25 04:44:04;;;;;;;15.05;3.72;;;;;;;4.39;100.00;99215.95;1829814;78;27521;-45
2024/01/25 04:46:36;;;;;;;19.37;4.53;;;;;;;4.38;100.00;99219.70;1829704;78;25601;-45
2024/01/25 04:48:59;;;;;;;16.60;4.60;;;;;;;4.38;100.00;99218.37;1829260;78;25503;-44
2024/01/25 04:51:25;;;;;;;18.23;3.67;;;;;;;4.37;100.00;99220.78;1829744;77;26031;-46
2024/01/25 04:53:51;;;;;;;15.68;3.10;;;;;;;4.37;100.00;99208.73;1829804;78;25451;-44
2024/01/25 04:56:17;;;;;;;16.60;3.50;;;;;;;4.35;100.00;99226.20;1829799;77;27559;-44
2024/01/25 04:58:44;;;;;;;15.00;3.42;;;;;;;4.36;100.00;99235.80;1829682;77;25592;-46
2024/01/25 05:01:11;;;;;;;12.68;3.17;;;;;;;4.34;100.00;99231.29;1829820;77;25566;-44
2024/01/25 05:03:38;;;;;;;14.70;3.50;;;;;;;4.33;100.00;99228.38;1829771;77;26126;-45
2024/01/25 05:06:05;;;;;;;10.58;2.80;;;;;;;4.31;100.00;99224.66;1829832;78;25390;-45
2024/01/25 05:08:32;;;;;;;17.27;3.77;;;;;;;4.31;100.00;99232.69;1829879;77;28135;-44
2024/01/25 05:10:58;;;;;;;18.60;3.72;;;;;;;4.30;100.00;99220.38;1829687;78;25554;-44
2024/01/25 05:13:24;;;;;;;12.53;2.95;;;;;;;4.29;100.00;99236.98;1829799;78;25580;-44
2024/01/25 05:15:51;;;;;;;14.38;2.70;;;;;;;4.29;100.00;99232.16;1827140;77;25852;-46
2024/01/25 05:18:17;;;;;;;12.90;3.00;;;;;;;4.29;100.00;99222.78;1823654;78;25451;-44
2024/01/25 05:20:43;;;;;;;15.20;3.45;;;;;;;4.28;100.00;99232.70;1823690;78;27488;-44
2024/01/25 05:23:10;;;;;;;17.35;4.00;;;;;;;4.31;100.00;99235.36;1823603;78;25838;-45
2024/01/25 05:25:37;;;;;;;17.57;2.90;;;;;;;4.30;100.00;99228.41;1823695;77;25552;-47
2024/01/25 05:28:05;;;;;;;7.67;2.58;;;;;;;4.30;100.00;99228.41;1823604;78;27712;-46
2024/01/25 05:30:32;;;;;;;10.08;2.92;;;;;;;4.30;100.00;99233.76;1823708;78;25546;-44
2024/01/25 05:32:59;;;;;;;12.53;2.95;;;;;;;4.29;100.00;99231.64;1823664;78;27682;-44
2024/01/25 05:35:25;;;;;;;9.90;2.60;;;;;;;4.29;100.00;99242.34;1823552;78;25556;-45
2024/01/25 05:37:52;;;;;;;14.03;3.20;;;;;;;4.29;100.00;99248.22;1823662;78;25551;-45
2024/01/25 05:40:18;;;;;;;12.88;2.77;;;;;;;4.30;100.00;99248.48;1823740;78;25548;-44
2024/01/25 05:42:44;;;;;;;12.03;3.15;;;;;;;4.30;100.00;99241.79;1823780;78;25384;-45
2024/01/25 05:45:11;;;;;;;9.40;2.75;;;;;;;4.32;100.00;99230.80;1823641;78;25834;-45
2024/01/25 05:47:37;;;;;;;10.30;3.17;;;;;;;4.33;100.00;99257.83;1823576;78;25458;-45
2024/01/25 05:50:06;;;;;;;15.35;4.15;;;;;;;4.35;100.00;99252.97;1823691;78;25537;-44
2024/01/25 05:52:33;;;;;;;12.07;3.08;;;;;;;4.36;100.00;99258.03;1823763;78;25665;-45
2024/01/25 05:55:00;;;;;;;9.53;2.62;;;;;;;4.36;100.00;99254.54;1823616;78;25601;-44
2024/01/25 05:57:27;;;;;;;9.33;3.40;;;;;;;4.38;100.00;99251.84;1823659;78;27447;-46
2024/01/25 05:59:54;;;;;;;10.10;2.90;;;;;;;4.38;100.00;99257.19;1823589;78;25672;-44
2024/01/25 06:02:20;;;;;;;9.08;2.87;;;;;;;4.39;100.00;99248.61;1823664;78;25610;-43
2024/01/25 06:04:47;;;;;;;6.30;2.67;;;;;;;4.40;100.00;99236.27;1823626;78;25777;-45
2024/01/25 06:07:14;;;;;;;8.08;3.22;;;;;;;4.42;100.00;99262.20;1823696;78;25385;-43
2024/01/25 06:09:41;;;;;;;9.63;2.50;;;;;;;4.43;100.00;99262.46;1823644;78;28069;-45
2024/01/25 06:12:08;;;;;;;10.10;2.58;;;;;;;4.45;100.00;99260.83;1823501;78;25557;-44
2024/01/25 06:14:34;;;;;;;12.35;2.92;;;;;;;4.45;100.00;99253.59;1823589;78;25369;-43
2024/01/25 06:17:00;;;;;;;13.88;2.90;;;;;;;4.46;100.00;99264.56;1828125;77;26410;-48
2024/01/25 06:19:27;;;;;;;11.57;2.60;;;;;;;4.47;100.00;99268.81;1829122;77;25768;-44
2024/01/25 06:21:53;;;;;;;7.53;2.65;;;;;;;4.48;100.00;99273.09;1829859;77;27582;-46
2024/01/25 06:24:19;;;;;;;7.20;2.70;;;;;;;4.48;100.00;99272.30;1829817;78;25545;-48
2024/01/25 06:26:45;;;;;;;9.08;2.60;;;;;;;4.48;100.00;99272.30;1829894;78;25456;-48
2024/01/25 06:29:11;;;;;;;9.10;2.52;;;;;;;4.49;100.00;99285.41;1829864;77;26469;-48
2024/01/25 06:31:43;;;;;;;11.95;3.10;;;;;;;4.51;100.00;99284.30;1829939;77;32313;-48
2024/01/25 06:34:10;;;;;;;10.08;2.45;;;;;;;4.51;100.00;99280.28;1829710;77;28511;-45
2024/01/25 06:36:37;;;;;;;7.85;2.35;;;;;;;4.52;100.00;99278.66;1829787;77;27377;-47
2024/01/25 06:39:08;;;;;;;9.93;2.75;;;;;;;4.51;100.00;99273.03;1829974;78;25627;-44
2024/01/25 06:41:32;;;;;;;6.95;2.40;;;;;;;4.52;100.00;99269.83;1829296;77;26210;-46
2024/01/25 06:43:59;;;;;;;9.23;2.50;;;;;;;4.52;100.00;99279.20;1829917;78;25372;-47
2024/01/25 06:46:26;;;;;;;7.35;2.47;;;;;;;4.51;100.00;99258.30;1829862;78;27950;-44
2024/01/25 06:48:53;;;;;;;6.53;1.95;;;;;;;4.50;100.00;99276.81;1829787;78;25404;-47
2024/01/25 06:51:19;;;;;;;4.60;2.12;;;;;;;4.50;100.00;99279.49;1829854;78;25514;-46
2024/01/25 06:53:46;;;;;;;10.15;3.22;;;;;;;4.48;100.00;99271.75;1829853;77;25560;-46
2024/01/25 06:56:12;;;;;;;11.35;3.65;;;;;;;4.52;100.00;99277.31;1829881;78;25564;-46
2024/01/25 06:58:39;;;;;;;11.83;2.35;;;;;;;4.52;100.00;99277.31;1829881;78;27542;-46
2024/01/25 07:01:05;;;;;;;10.40;2.33;;;;;;;4.53;100.00;99289.63;1829823;77;25530;-44
2024/01/25 07:03:31;;;;;;;9.85;1.80;;;;;;;4.54;100.00;99289.08;1829889;78;25597;-45
2024/01/25 07:05:58;;;;;;;7.17;1.72;;;;;;;4.53;100.00;99308.37;1829839;77;26101;-45
2024/01/25 07:08:24;;;;;;;12.58;3.05;;;;;;;4.52;100.00;99292.04;1829888;77;25427;-46
2024/01/25 07:10:51;;;;;;;9.75;2.33;;;;;;;4.53;100.00;99303.54;1829883;77;27456;-44
2024/01/25 07:13:17;;;;;;;10.05;2.52;;;;;;;4.53;100.00;99302.20;1829780;77;25539;-45
2024/01/25 07:15:43;;;;;;;6.65;2.25;;;;;;;4.48;100.00;99310.58;1829286;78;25408;-45
2024/01/25 07:18:11;;;;;;;14.98;3.05;;;;;;;4.50;100.00;99299.58;1823811;78;25572;-44
2024/01/25 07:20:37;;;;;;;6.80;2.20;;;;;;;4.48;100.00;99309.80;1823863;78;25577;-46
2024/01/25 07:23:04;;;;;;;9.40;2.75;;;;;;;4.47;100.00;99307.64;1823738;78;27592;-45
2024/01/25 07:25:30;;;;;;;7.97;2.10;;;;;;;4.47;100.00;99309.53;1823694;78;25501;-45
2024/01/25 07:27:56;;;;;;;10.00;2.33;;;;;;;4.47;100.00;99322.37;1823740;78;25553;-46
2024/01/25 07:30:23;;;;;;;8.53;2.15;;;;;;;4.45;100.00;99312.50;1823676;78;25621;-45
2024/01/25 07:32:49;;;;;;;8.83;2.30;;;;;;;4.44;100.00;99316.28;1823823;78;25417;-45
2024/01/25 07:35:16;;;;;;;8.28;2.55;;;;;;;4.44;100.00;99323.50;1823784;78;28384;-45
2024/01/25 07:37:42;;;;;;;11.10;2.77;;;;;;;4.42;100.00;99329.70;1823619;78;25430;-45
2024/01/25 07:40:10;;;;;;;7.65;2.98;;;;;;;4.41;100.00;99322.21;1823684;78;25400;-48
2024/01/25 07:42:37;;;;;;;6.03;2.50;;;;;;;4.42;100.00;99327.80;1823700;78;25542;-45
2024/01/25 07:45:05;;;;;;;6.33;1.75;;;;;;;4.42;100.00;99331.03;1823837;78;25371;-45
2024/01/25 07:47:31;;;;;;;7.03;2.22;;;;;;;4.40;100.00;99330.53;1824039;78;27540;-44
2024/01/25 07:49:57;;;;;;;8.65;2.20;;;;;;;4.37;100.00;99340.48;1823617;78;25537;-44
2024/01/25 07:52:24;;;;;;;7.20;2.42;;;;;;;4.36;100.00;99318.80;1823771;78;25396;-44
2024/01/25 07:54:50;;;;;;;7.58;2.00;;;;;;;4.34;100.00;99326.33;1823693;78;25496;-43
2024/01/25 07:57:16;;;;;;;7.50;3.02;;;;;;;4.35;100.00;99324.70;1823775;78;25538;-44
2024/01/25 07:59:42;;;;;;;11.00;2.95;;;;;;;4.35;100.00;99327.38;1823757;78;28107;-44
2024/01/25 08:02:09;;;;;;;7.47;2.55;;;;;;;4.34;100.00;99324.44;1823696;78;25560;-46
2024/01/25 08:04:35;;;;;;;6.65;2.27;;;;;;;4.34;100.00;99332.47;1823731;78;25605;-44
2024/01/25 08:07:03;;;;;;;7.35;2.12;;;;;;;4.34;100.00;99324.44;1823662;78;27863;-44
2024/01/25 08:09:29;;;;;;;8.48;2.50;;;;;;;4.34;100.00;99329.80;1823742;78;25382;-47
2024/01/25 08:11:55;;;;;;;7.12;2.00;;;;;;;4.35;100.00;99335.41;1823733;78;27485;-45
2024/01/25 08:14:22;;;;;;;8.70;2.50;;;;;;;4.36;100.00;99328.98;1823584;78;25831;-44
2024/01/25 08:16:48;;;;;;;8.50;2.62;;;;;;;4.37;100.00;99340.48;1823607;78;25511;-45
2024/01/25 08:19:14;;;;;;;6.30;2.08;;;;;;;4.37;100.00;99342.61;1823695;78;25523;-44
2024/01/25 08:21:40;;;;;;;8.00;2.85;;;;;;;4.40;100.00;99337.23;1823716;78;25439;-45
2024/01/25 08:24:08;;;;;;;6.45;2.20;;;;;;;4.40;100.00;99334.00;1823804;78;27463;-44
2024/01/25 08:26:34;;;;;;;6.67;2.42;;;;;;;4.40;100.00;99343.38;1823669;78;25592;-47
2024/01/25 08:29:01;;;;;;;7.58;2.40;;;;;;;4.39;100.00;99334.29;1823712;78;25412;-46
2024/01/25 08:31:27;;;;;;;7.70;2.83;;;;;;;4.39;100.00;99350.35;1823688;78;25548;-46
2024/01/25 08:33:53;;;;;;;3.60;2.30;;;;;;;4.39;100.00;99352.51;1823728;78;25379;-45
2024/01/25 08:36:20;;;;;;;4.95;3.00;;;;;;;4.39;100.00;99351.69;1823675;78;27569;-44
2024/01/25 08:38:47;;;;;;;6.78;2.65;;;;;;;4.41;100.00;99349.52;1823642;78;25375;-46
2024/01/25 08:41:15;;;;;;;7.95;3.10;;;;;;;4.42;100.00;99351.11;1823683;78;25348;-48
2024/01/25 08:43:42;;;;;;;7.78;3.17;;;;;;;4.43;100.00;99359.41;1823660;78;25663;-45
2024/01/25 08:46:08;;;;;;;8.83;3.20;;;;;;;4.44;100.00;99361.80;1823749;78;25445;-45
2024/01/25 08:48:35;;;;;;;7.35;3.17;;;;;;;4.44;100.00;99362.33;1823691;78;27464;-44
2024/01/25 08:51:01;;;;;;;5.50;3.30;;;;;;;4.46;100.00;99370.86;1823730;78;25739;-44
2024/01/25 08:53:28;;;;;;;7.35;3.20;;;;;;;4.45;100.00;99363.38;1823704;78;25608;-44
2024/01/25 08:55:55;;;;;;;7.28;3.10;;;;;;;4.46;100.00;99367.66;1823649;78;25508;-45
2024/01/25 08:58:22;;;;;;;4.08;2.95;;;;;;;4.47;100.00;99372.46;1823734;78;25617;-45
2024/01/25 09:00:49;;;;;;;4.35;2.95;;;;;;;4.48;100.00;99380.20;1823722;78;27475;-47
2024/01/25 09:03:16;;;;;;;4.40;3.17;;;;;;;4.50;100.00;99381.26;1823697;78;25227;-45
2024/01/25 09:05:44;;;;;;;5.65;3.83;;;;;;;4.48;100.00;99385.56;1823722;78;25402;-46
2024/01/25 09:08:14;;;;;;;6.53;3.27;;;;;;;4.47;100.00;99393.89;1823602;78;26112;-45
2024/01/25 09:10:42;;;;;;;5.90;2.70;;;;;;;4.47;100.00;99394.67;1823748;78;25548;-46
2024/01/25 09:13:09;;;;;;;3.75;2.42;;;;;;;4.46;100.00;99401.13;1823705;78;27424;-45
2024/01/25 09:15:36;;;;;;;4.17;2.45;;;;;;;4.46;100.00;99423.08;1823536;78;25420;-46
2024/01/25 09:18:02;;;;;;;4.62;2.35;;;;;;;4.46;100.00;99421.22;1823650;78;25586;-45
2024/01/25 09:20:29;;;;;;;6.70;2.70;;;;;;;4.46;100.00;99421.22;1823662;78;26171;-45
2024/01/25 09:22:55;;;;;;;4.62;2.70;;;;;;;4.46;100.00;99427.91;1823736;78;25458;-45
2024/01/25 09:25:23;;;;;;;4.12;2.37;;;;;;;4.48;100.00;99426.29;1823707;78;27472;-44
2024/01/25 09:27:50;;;;;;;3.05;2.30;;;;;;;4.50;100.00;99425.45;1823574;78;25869;-46
2024/01/25 09:30:16;;;;;;;2.45;2.12;;;;;;;4.46;100.00;99427.91;1823669;78;25542;-45
2024/01/25 09:32:43;;;;;;;4.67;2.95;;;;;;;4.51;100.00;99440.41;1823603;78;25584;-46
2024/01/25 09:35:09;;;;;;;3.47;2.40;;;;;;;4.52;100.00;99430.52;1823698;78;25620;-46
2024/01/25 09:37:35;;;;;;;3.12;2.55;;;;;;;4.53;100.00;99427.55;1823676;78;27406;-45
2024/01/25 09:40:03;;;;;;;4.42;2.52;;;;;;;4.53;100.00;99437.45;1823619;78;25560;-45
2024/01/25 09:42:30;;;;;;;4.05;2.12;;;;;;;4.52;100.00;99427.29;1823715;78;25443;-44
2024/01/25 09:44:56;;;;;;;3.00;2.25;;;;;;;4.54;100.00;99435.83;1823714;78;25475;-45
2024/01/25 09:47:23;;;;;;;4.20;2.02;;;;;;;4.54;100.00;99433.14;1823698;78;25374;-44
2024/01/25 09:49:49;;;;;;;4.35;2.47;;;;;;;4.55;100.00;99437.42;1823699;78;27515;-45
2024/01/25 09:52:19;;;;;;;4.08;2.52;;;;;;;4.60;100.00;99452.09;1823581;78;25592;-47
2024/01/25 09:54:46;;;;;;;10.53;7.62;;;;;;;4.62;100.00;99454.48;1823754;78;25547;-46
2024/01/25 09:57:17;;;;;;;37.35;24.25;;;;;;;4.67;100.00;99451.17;1823808;78;25621;-46
2024/01/25 09:59:44;;;;;;;4.75;3.92;;;;;;;4.72;100.00;99453.55;1823792;78;25687;-43
2024/01/25 10:02:12;;;;;;;3.27;2.30;;;;;;;4.74;100.00;99456.17;1823836;78;27531;-44
2024/01/25 10:04:38;;;;;;;4.67;2.25;;;;;;;4.80;100.00;99463.06;1823784;78;25594;-45
2024/01/25 10:07:04;;;;;;;7.37;2.30;;;;;;;4.81;100.00;99463.85;1823784;78;25570;-45
2024/01/25 10:09:43;;;;;;;3.67;2.20;;;;;;;4.82;100.00;99468.13;1823736;78;25600;-45
2024/01/25 10:12:10;;;;;;;3.47;2.10;;;;;;;4.82;100.00;99469.47;1824119;78;25590;-45
2024/01/25 10:14:36;;;;;;;3.45;2.45;;;;;;;4.81;100.00;99471.89;1823791;78;28167;-44
2024/01/25 10:17:03;;;;;;;4.03;2.35;;;;;;;4.80;100.00;99476.98;1824728;77;25432;-44
2024/01/25 10:19:29;;;;;;;4.65;2.45;;;;;;;4.77;100.00;99477.59;1829947;78;25528;-46
2024/01/25 10:21:57;;;;;;;4.08;2.72;;;;;;;4.76;100.00;99477.32;1829889;78;25543;-46
2024/01/25 10:24:23;;;;;;;2.50;2.30;;;;;;;4.73;100.00;99477.34;1829925;78;25444;-45
2024/01/25 10:26:50;;;;;;;6.80;2.87;;;;;;;4.72;100.00;99482.47;1829918;77;27476;-44
2024/01/25 10:29:16;;;;;;;4.28;1.98;;;;;;;4.72;100.00;99481.13;1829806;77;25684;-45
2024/01/25 10:31:44;;;;;;;4.20;2.58;;;;;;;4.74;100.00;99486.20;1813832;78;25464;-45
2024/01/25 10:34:15;;;;;;;4.20;2.47;;;;;;;4.74;100.00;99492.89;1829863;78;25387;-46
2024/01/25 10:36:43;;;;;;;6.10;4.47;;;;;;;4.76;100.00;99486.70;1829936;78;25391;-44
2024/01/25 10:39:10;;;;;;;153.70;106.55;;;;;;;4.78;100.00;99495.23;1829893;77;27475;-47
2024/01/25 10:41:36;;;;;;;11.95;6.53;;;;;;;4.82;100.00;99499.73;1829834;77;25391;-44
2024/01/25 10:44:03;;;;;;;4.33;2.62;;;;;;;4.84;100.00;99490.07;1829884;78;25600;-44
2024/01/25 10:46:29;;;;;;;4.30;2.30;;;;;;;4.91;100.00;99501.22;1829892;77;25461;-44
2024/01/25 10:48:59;;;;;;;3.10;2.50;;;;;;;4.94;100.00;99494.46;1830002;77;25552;-43
2024/01/25 10:51:27;;;;;;;3.90;2.65;;;;;;;5.01;100.00;99504.30;1830006;78;27594;-47
2024/01/25 10:53:54;;;;;;;3.77;2.80;;;;;;;5.05;100.00;99506.64;1830124;77;25625;-45
2024/01/25 10:56:21;;;;;;;5.25;2.70;;;;;;;5.09;100.00;99510.34;1829864;78;25366;-45
2024/01/25 10:58:49;;;;;;;5.08;2.42;;;;;;;5.12;100.00;99512.97;1829870;77;25859;-45
2024/01/25 11:01:17;;;;;;;3.47;2.30;;;;;;;5.11;100.00;99503.33;1829941;77;25604;-46
2024/01/25 11:03:49;;;;;;;2.37;1.87;;;;;;;5.11;100.00;99515.39;1830014;78;27454;-47
2024/01/25 11:06:18;;;;;;;3.72;2.00;;;;;;;5.10;100.00;99507.11;1829832;78;25615;-47
2024/01/25 11:08:44;;;;;;;3.58;1.90;;;;;;;5.09;100.00;99517.57;1813468;78;25552;-47
2024/01/25 11:11:14;;;;;;;5.42;2.20;;;;;;;5.09;100.00;99522.41;1829964;77;25563;-46
2024/01/25 11:13:42;;;;;;;2.37;1.90;;;;;;;5.09;100.00;99525.61;1829904;78;25592;-45
2024/01/25 11:16:20;;;;;;;3.20;1.82;;;;;;;5.10;100.00;99528.55;1829847;78;27475;-45
2024/01/25 11:18:53;;;;;;;52.78;35.85;;;;;;;5.07;100.00;99533.94;1828808;77;25442;-46
2024/01/25 11:21:44;;;;;;;48.55;32.98;;;;;;;5.06;100.00;99532.37;1829893;77;25596;-46
2024/01/25 11:24:30;;;;;;;8.63;5.87;;;;;;;5.08;100.00;99537.44;1829865;78;25555;-45
2024/01/25 11:26:57;;;;;;;5.00;1.87;;;;;;;5.07;100.00;99533.94;1822485;77;25803;-44